sensor_id;sensor_type;location;lat;lon;timestamp;pressure;altitude;pressure_sealevel;temperature;humidity
30554;BME280;17335;50.720;7.452;2023-02-16T00:01:48;100263.47;;;0.12;100.00
30554;BME280;17335;50.720;7.452;2023-02-16T00:04:29;100265.66;;;0.25;100.00
30554;BME280;17335;50.720;7.452;2023-02-16T00:06:57;100262.09;;;0.26;100.00
30554;BME280;17335;50.720;7.452;2023-02-16T00:09:23;100264.13;;;0.19;100.00
30554;BME280;17335;50.720;7.452;2023-02-16T00:11:51;100261.63;;;0.14;100.00
30554;BME280;17335;50.720;7.452;2023-02-16T00:14:38;100256.31;;;0.16;100.00
30554;BME280;17335;50.720;7.452;2023-02-16T00:17:05;100255.81;;;0.05;100.00
30554;BME280;17335;50.720;7.452;2023-02-16T00:19:35;100261.19;;;0.02;100.00
30554;BME280;17335;50.720;7.452;2023-02-16T00:22:03;100261.19;;;0.02;100.00
30554;BME280;17335;50.720;7.452;2023-02-16T00:24:31;100254.31;;;-0.03;100.00
30554;BME280;17335;50.720;7.452;2023-02-16T00:26:58;100252.78;;;-0.08;100.00
30554;BME280;17335;50.720;7.452;2023-02-16T00:29:31;100255.56;;;-0.13;100.00
30554;BME280;17335;50.720;7.452;2023-02-16T00:32:01;100257.94;;;-0.05;100.00
30554;BME280;17335;50.720;7.452;2023-02-16T00:34:34;100247.31;;;-0.04;100.00
30554;BME280;17335;50.720;7.452;2023-02-16T00:37:06;100252.59;;;-0.04;100.00
30554;BME280;17335;50.720;7.452;2023-02-16T00:39:34;100243.47;;;0.05;100.00
30554;BME280;17335;50.720;7.452;2023-02-16T00:42:12;100232.06;;;0.05;100.00
30554;BME280;17335;50.720;7.452;2023-02-16T00:44:46;100248.59;;;0.10;100.00
30554;BME280;17335;50.720;7.452;2023-02-16T00:47:19;100241.38;;;0.15;100.00
30554;BME280;17335;50.720;7.452;2023-02-16T00:49:48;100236.81;;;0.18;100.00
30554;BME280;17335;50.720;7.452;2023-02-16T00:52:38;100237.13;;;0.11;100.00
30554;BME280;17335;50.720;7.452;2023-02-16T00:55:20;100234.69;;;0.05;100.00
30554;BME280;17335;50.720;7.452;2023-02-16T00:57:54;100247.00;;;0.06;100.00
30554;BME280;17335;50.720;7.452;2023-02-16T01:02:52;100233.22;;;-0.03;100.00
30554;BME280;17335;50.720;7.452;2023-02-16T01:05:20;100237.53;;;0.00;100.00
30554;BME280;17335;50.720;7.452;2023-02-16T01:07:47;100243.88;;;-0.06;100.00
30554;BME280;17335;50.720;7.452;2023-02-16T01:10:33;100238.47;;;-0.03;100.00
30554;BME280;17335;50.720;7.452;2023-02-16T01:13:19;100233.25;;;-0.04;100.00
30554;BME280;17335;50.720;7.452;2023-02-16T01:15:47;100237.28;;;0.06;100.00
30554;BME280;17335;50.720;7.452;2023-02-16T01:18:16;100240.91;;;0.04;100.00
30554;BME280;17335;50.720;7.452;2023-02-16T01:20:43;100234.19;;;-0.05;100.00
30554;BME280;17335;50.720;7.452;2023-02-16T01:23:10;100232.47;;;-0.06;100.00
30554;BME280;17335;50.720;7.452;2023-02-16T01:25:37;100226.63;;;-0.16;100.00
30554;BME280;17335;50.720;7.452;2023-02-16T01:28:23;100221.59;;;-0.22;100.00
30554;BME280;17335;50.720;7.452;2023-02-16T01:30:51;100224.94;;;-0.17;100.00
30554;BME280;17335;50.720;7.452;2023-02-16T01:33:19;100226.19;;;-0.27;100.00
30554;BME280;17335;50.720;7.452;2023-02-16T01:35:46;100222.84;;;-0.32;100.00
30554;BME280;17335;50.720;7.452;2023-02-16T01:38:21;100219.28;;;-0.31;100.00
30554;BME280;17335;50.720;7.452;2023-02-16T01:46:32;100218.56;;;-0.36;100.00
30554;BME280;17335;50.720;7.452;2023-02-16T01:49:02;100225.91;;;-0.45;100.00
30554;BME280;17335;50.720;7.452;2023-02-16T01:51:45;100226.13;;;-0.51;100.00
30554;BME280;17335;50.720;7.452;2023-02-16T01:54:40;100214.91;;;-0.58;100.00
30554;BME280;17335;50.720;7.452;2023-02-16T02:02:20;100216.94;;;-0.66;100.00
30554;BME280;17335;50.720;7.452;2023-02-16T02:05:22;100214.34;;;-0.67;100.00
30554;BME280;17335;50.720;7.452;2023-02-16T02:11:05;100210.13;;;-0.71;100.00
30554;BME280;17335;50.720;7.452;2023-02-16T02:13:44;100207.72;;;-0.79;100.00
30554;BME280;17335;50.720;7.452;2023-02-16T02:16:19;100200.75;;;-0.80;100.00
30554;BME280;17335;50.720;7.452;2023-02-16T02:18:47;100203.34;;;-0.79;100.00
30554;BME280;17335;50.720;7.452;2023-02-16T02:27:26;100197.34;;;-0.84;100.00
30554;BME280;17335;50.720;7.452;2023-02-16T02:36:04;100204.56;;;-0.89;100.00
30554;BME280;17335;50.720;7.452;2023-02-16T02:41:34;100199.38;;;-0.92;100.00
30554;BME280;17335;50.720;7.452;2023-02-16T02:44:23;100200.44;;;-0.98;100.00
30554;BME280;17335;50.720;7.452;2023-02-16T02:46:52;100190.91;;;-1.02;100.00
30554;BME280;17335;50.720;7.452;2023-02-16T02:49:19;100198.81;;;-1.02;100.00
30554;BME280;17335;50.720;7.452;2023-02-16T02:51:46;100197.94;;;-1.02;100.00
30554;BME280;17335;50.720;7.452;2023-02-16T02:54:23;100198.94;;;-1.05;100.00
30554;BME280;17335;50.720;7.452;2023-02-16T03:00:18;100189.75;;;-1.20;100.00
30554;BME280;17335;50.720;7.452;2023-02-16T03:08:26;100185.28;;;-1.18;100.00
30554;BME280;17335;50.720;7.452;2023-02-16T03:10:57;100188.72;;;-1.16;100.00
30554;BME280;17335;50.720;7.452;2023-02-16T03:13:46;100191.53;;;-1.20;100.00
30554;BME280;17335;50.720;7.452;2023-02-16T03:16:20;100189.53;;;-1.14;100.00
30554;BME280;17335;50.720;7.452;2023-02-16T03:18:49;100193.72;;;-1.06;100.00
30554;BME280;17335;50.720;7.452;2023-02-16T03:21:35;100194.50;;;-1.04;100.00
30554;BME280;17335;50.720;7.452;2023-02-16T03:24:30;100189.34;;;-1.07;100.00
30554;BME280;17335;50.720;7.452;2023-02-16T03:27:22;100177.19;;;-1.11;100.00
30554;BME280;17335;50.720;7.452;2023-02-16T03:30:09;100181.56;;;-1.12;100.00
30554;BME280;17335;50.720;7.452;2023-02-16T03:32:38;100175.69;;;-0.93;100.00
30554;BME280;17335;50.720;7.452;2023-02-16T03:35:05;100166.84;;;-0.91;100.00
30554;BME280;17335;50.720;7.452;2023-02-16T03:37:32;100174.09;;;-0.98;100.00
30554;BME280;17335;50.720;7.452;2023-02-16T03:39:59;100182.25;;;-1.05;100.00
30554;BME280;17335;50.720;7.452;2023-02-16T03:42:50;100170.09;;;-1.09;100.00
30554;BME280;17335;50.720;7.452;2023-02-16T03:45:18;100174.34;;;-1.05;100.00
30554;BME280;17335;50.720;7.452;2023-02-16T03:47:46;100162.09;;;-1.06;100.00
30554;BME280;17335;50.720;7.452;2023-02-16T03:50:12;100163.38;;;-0.93;100.00
30554;BME280;17335;50.720;7.452;2023-02-16T03:52:39;100158.66;;;-0.83;100.00
30554;BME280;17335;50.720;7.452;2023-02-16T03:55:06;100165.91;;;-0.90;100.00
30554;BME280;17335;50.720;7.452;2023-02-16T03:57:33;100169.66;;;-0.97;100.00
30554;BME280;17335;50.720;7.452;2023-02-16T03:59:59;100169.88;;;-1.03;100.00
30554;BME280;17335;50.720;7.452;2023-02-16T04:02:27;100175.03;;;-1.00;100.00
30554;BME280;17335;50.720;7.452;2023-02-16T04:04:54;100176.13;;;-1.06;100.00
30554;BME280;17335;50.720;7.452;2023-02-16T04:07:21;100170.09;;;-1.09;100.00
30554;BME280;17335;50.720;7.452;2023-02-16T04:09:47;100169.28;;;-1.11;100.00
30554;BME280;17335;50.720;7.452;2023-02-16T04:12:14;100168.63;;;-1.18;100.00
30554;BME280;17335;50.720;7.452;2023-02-16T04:15:00;100174.16;;;-1.27;100.00
30554;BME280;17335;50.720;7.452;2023-02-16T04:17:26;100163.97;;;-1.38;100.00
30554;BME280;17335;50.720;7.452;2023-02-16T04:19:53;100159.81;;;-1.45;100.00
30554;BME280;17335;50.720;7.452;2023-02-16T04:22:20;100165.94;;;-1.45;100.00
30554;BME280;17335;50.720;7.452;2023-02-16T04:24:46;100164.69;;;-1.33;100.00
30554;BME280;17335;50.720;7.452;2023-02-16T04:27:13;100168.59;;;-0.91;100.00
30554;BME280;17335;50.720;7.452;2023-02-16T04:29:39;100171.47;;;-0.98;100.00
30554;BME280;17335;50.720;7.452;2023-02-16T04:32:06;100181.66;;;-0.62;100.00
30554;BME280;17335;50.720;7.452;2023-02-16T04:34:32;100182.00;;;-0.72;100.00
30554;BME280;17335;50.720;7.452;2023-02-16T04:36:59;100176.34;;;-0.87;100.00
30554;BME280;17335;50.720;7.452;2023-02-16T04:39:27;100188.22;;;-1.00;100.00
30554;BME280;17335;50.720;7.452;2023-02-16T04:41:53;100189.38;;;-1.09;100.00
30554;BME280;17335;50.720;7.452;2023-02-16T04:44:20;100193.28;;;-1.21;100.00
30554;BME280;17335;50.720;7.452;2023-02-16T04:46:47;100182.38;;;-1.37;100.00
30554;BME280;17335;50.720;7.452;2023-02-16T04:49:13;100180.91;;;-1.45;100.00
30554;BME280;17335;50.720;7.452;2023-02-16T04:51:40;100186.03;;;-1.41;100.00
30554;BME280;17335;50.720;7.452;2023-02-16T04:54:07;100184.06;;;-1.34;100.00
30554;BME280;17335;50.720;7.452;2023-02-16T04:56:35;100178.81;;;-1.34;100.00
30554;BME280;17335;50.720;7.452;2023-02-16T04:59:02;100184.19;;;-1.39;100.00
30554;BME280;17335;50.720;7.452;2023-02-16T05:01:29;100183.63;;;-1.48;100.00
30554;BME280;17335;50.720;7.452;2023-02-16T05:03:56;100178.41;;;-1.50;100.00
30554;BME280;17335;50.720;7.452;2023-02-16T05:06:22;100182.00;;;-1.53;100.00
30554;BME280;17335;50.720;7.452;2023-02-16T05:08:49;100176.53;;;-1.46;100.00
30554;BME280;17335;50.720;7.452;2023-02-16T05:11:15;100173.56;;;-1.36;100.00
30554;BME280;17335;50.720;7.452;2023-02-16T05:14:00;100167.34;;;-1.33;100.00
30554;BME280;17335;50.720;7.452;2023-02-16T05:16:45;100156.41;;;-1.21;100.00
30554;BME280;17335;50.720;7.452;2023-02-16T05:19:12;100149.91;;;-1.10;100.00
30554;BME280;17335;50.720;7.452;2023-02-16T05:21:39;100163.09;;;-0.84;100.00
30554;BME280;17335;50.720;7.452;2023-02-16T05:24:10;100167.06;;;-0.72;100.00
30554;BME280;17335;50.720;7.452;2023-02-16T05:26:37;100172.28;;;-0.70;100.00
30554;BME280;17335;50.720;7.452;2023-02-16T05:29:07;100160.56;;;-0.62;100.00
30554;BME280;17335;50.720;7.452;2023-02-16T05:31:33;100160.56;;;-0.62;100.00
30554;BME280;17335;50.720;7.452;2023-02-16T05:34:00;100168.09;;;-0.51;100.00
30554;BME280;17335;50.720;7.452;2023-02-16T05:36:27;100172.88;;;-0.37;100.00
30554;BME280;17335;50.720;7.452;2023-02-16T05:38:53;100176.53;;;-0.41;100.00
30554;BME280;17335;50.720;7.452;2023-02-16T05:41:21;100170.28;;;-0.39;100.00
30554;BME280;17335;50.720;7.452;2023-02-16T05:43:56;100171.19;;;-0.40;100.00
30554;BME280;17335;50.720;7.452;2023-02-16T05:46:24;100167.88;;;-0.45;100.00
30554;BME280;17335;50.720;7.452;2023-02-16T05:48:51;100178.75;;;-0.54;100.00
30554;BME280;17335;50.720;7.452;2023-02-16T05:51:18;100178.28;;;-0.65;100.00
30554;BME280;17335;50.720;7.452;2023-02-16T05:53:44;100169.44;;;-0.64;100.00
30554;BME280;17335;50.720;7.452;2023-02-16T05:56:12;100168.44;;;-0.60;100.00
30554;BME280;17335;50.720;7.452;2023-02-16T05:58:39;100170.75;;;-0.78;100.00
30554;BME280;17335;50.720;7.452;2023-02-16T06:01:06;100169.28;;;-0.60;100.00
30554;BME280;17335;50.720;7.452;2023-02-16T06:03:32;100160.66;;;-0.65;100.00
30554;BME280;17335;50.720;7.452;2023-02-16T06:06:00;100167.66;;;-0.64;100.00
30554;BME280;17335;50.720;7.452;2023-02-16T06:08:28;100173.47;;;-0.54;100.00
30554;BME280;17335;50.720;7.452;2023-02-16T06:10:55;100166.59;;;-0.34;100.00
30554;BME280;17335;50.720;7.452;2023-02-16T06:13:22;100166.50;;;-0.31;100.00
30554;BME280;17335;50.720;7.452;2023-02-16T06:15:51;100161.13;;;-0.28;100.00
30554;BME280;17335;50.720;7.452;2023-02-16T06:18:20;100166.56;;;-0.33;100.00
30554;BME280;17335;50.720;7.452;2023-02-16T06:20:46;100173.91;;;-0.41;100.00
30554;BME280;17335;50.720;7.452;2023-02-16T06:23:13;100178.44;;;-0.45;100.00
30554;BME280;17335;50.720;7.452;2023-02-16T06:25:44;100177.34;;;-0.39;100.00
30554;BME280;17335;50.720;7.452;2023-02-16T06:28:13;100180.13;;;-0.44;100.00
30554;BME280;17335;50.720;7.452;2023-02-16T06:30:40;100177.06;;;-0.31;100.00
30554;BME280;17335;50.720;7.452;2023-02-16T06:33:08;100175.22;;;-0.29;100.00
30554;BME280;17335;50.720;7.452;2023-02-16T06:35:34;100182.22;;;-0.28;100.00
30554;BME280;17335;50.720;7.452;2023-02-16T06:38:01;100174.78;;;-0.17;100.00
30554;BME280;17335;50.720;7.452;2023-02-16T06:40:27;100170.22;;;-0.12;100.00
30554;BME280;17335;50.720;7.452;2023-02-16T06:42:54;100174.91;;;-0.20;100.00
30554;BME280;17335;50.720;7.452;2023-02-16T06:45:20;100163.19;;;0.11;100.00
30554;BME280;17335;50.720;7.452;2023-02-16T06:47:47;100161.81;;;0.01;100.00
30554;BME280;17335;50.720;7.452;2023-02-16T06:50:13;100157.25;;;0.06;100.00
30554;BME280;17335;50.720;7.452;2023-02-16T06:52:40;100167.09;;;0.01;100.00
30554;BME280;17335;50.720;7.452;2023-02-16T06:55:07;100159.00;;;0.05;100.00
30554;BME280;17335;50.720;7.452;2023-02-16T06:57:34;100169.38;;;0.10;100.00
30554;BME280;17335;50.720;7.452;2023-02-16T07:00:00;100175.41;;;0.13;100.00
30554;BME280;17335;50.720;7.452;2023-02-16T07:02:27;100178.78;;;0.17;100.00
30554;BME280;17335;50.720;7.452;2023-02-16T07:04:53;100173.25;;;0.25;100.00
30554;BME280;17335;50.720;7.452;2023-02-16T07:07:20;100171.09;;;0.34;100.00
30554;BME280;17335;50.720;7.452;2023-02-16T07:09:46;100171.78;;;0.40;100.00
30554;BME280;17335;50.720;7.452;2023-02-16T07:12:13;100164.38;;;0.26;100.00
30554;BME280;17335;50.720;7.452;2023-02-16T07:14:40;100171.09;;;0.34;100.00
30554;BME280;17335;50.720;7.452;2023-02-16T07:17:09;100158.03;;;0.53;100.00
30554;BME280;17335;50.720;7.452;2023-02-16T07:19:35;100166.84;;;0.30;100.00
30554;BME280;17335;50.720;7.452;2023-02-16T07:22:02;100171.44;;;0.25;100.00
30554;BME280;17335;50.720;7.452;2023-02-16T07:24:29;100164.22;;;0.30;100.00
30554;BME280;17335;50.720;7.452;2023-02-16T07:26:55;100170.59;;;0.25;100.00
30554;BME280;17335;50.720;7.452;2023-02-16T07:29:22;100170.63;;;0.47;100.00
30554;BME280;17335;50.720;7.452;2023-02-16T07:31:48;100164.34;;;0.49;100.00
30554;BME280;17335;50.720;7.452;2023-02-16T07:34:16;100165.88;;;0.55;100.00
30554;BME280;17335;50.720;7.452;2023-02-16T07:36:43;100164.84;;;0.81;100.00
30554;BME280;17335;50.720;7.452;2023-02-16T07:39:10;100175.16;;;0.87;100.00
30554;BME280;17335;50.720;7.452;2023-02-16T07:41:37;100178.53;;;0.91;100.00
30554;BME280;17335;50.720;7.452;2023-02-16T07:44:04;100184.00;;;1.08;100.00
30554;BME280;17335;50.720;7.452;2023-02-16T07:46:31;100190.28;;;1.26;100.00
30554;BME280;17335;50.720;7.452;2023-02-16T07:48:58;100183.69;;;1.37;100.00
30554;BME280;17335;50.720;7.452;2023-02-16T07:51:27;100182.91;;;1.35;100.00
30554;BME280;17335;50.720;7.452;2023-02-16T07:53:55;100190.84;;;1.55;100.00
30554;BME280;17335;50.720;7.452;2023-02-16T07:56:25;100189.56;;;1.64;100.00
30554;BME280;17335;50.720;7.452;2023-02-16T07:58:53;100188.09;;;1.77;100.00
30554;BME280;17335;50.720;7.452;2023-02-16T08:01:20;100188.22;;;1.95;100.00
30554;BME280;17335;50.720;7.452;2023-02-16T08:03:47;100193.16;;;2.02;100.00
30554;BME280;17335;50.720;7.452;2023-02-16T08:06:15;100185.06;;;2.24;100.00
30554;BME280;17335;50.720;7.452;2023-02-16T08:08:41;100181.00;;;2.36;100.00
30554;BME280;17335;50.720;7.452;2023-02-16T08:11:10;100183.63;;;2.55;100.00
30554;BME280;17335;50.720;7.452;2023-02-16T08:13:36;100173.75;;;2.59;100.00
30554;BME280;17335;50.720;7.452;2023-02-16T08:16:07;100164.81;;;2.61;100.00
30554;BME280;17335;50.720;7.452;2023-02-16T08:18:34;100174.31;;;2.66;100.00
30554;BME280;17335;50.720;7.452;2023-02-16T08:21:08;100175.59;;;2.76;100.00
30554;BME280;17335;50.720;7.452;2023-02-16T08:23:43;100170.00;;;2.82;100.00
30554;BME280;17335;50.720;7.452;2023-02-16T08:26:14;100166.72;;;2.77;100.00
30554;BME280;17335;50.720;7.452;2023-02-16T08:28:43;100166.25;;;2.86;100.00
30554;BME280;17335;50.720;7.452;2023-02-16T08:31:22;100158.78;;;2.94;100.00
30554;BME280;17335;50.720;7.452;2023-02-16T08:33:51;100170.78;;;3.02;100.00
30554;BME280;17335;50.720;7.452;2023-02-16T08:36:24;100164.94;;;3.12;100.00
30554;BME280;17335;50.720;7.452;2023-02-16T08:38:52;100164.50;;;3.22;100.00
30554;BME280;17335;50.720;7.452;2023-02-16T08:41:22;100159.97;;;3.24;100.00
30554;BME280;17335;50.720;7.452;2023-02-16T08:43:48;100162.75;;;3.38;100.00
30554;BME280;17335;50.720;7.452;2023-02-16T08:46:16;100157.84;;;3.48;100.00
30554;BME280;17335;50.720;7.452;2023-02-16T08:48:43;100146.88;;;3.54;100.00
30554;BME280;17335;50.720;7.452;2023-02-16T08:51:18;100155.00;;;3.68;100.00
30554;BME280;17335;50.720;7.452;2023-02-16T08:53:45;100158.13;;;3.59;100.00
30554;BME280;17335;50.720;7.452;2023-02-16T08:56:14;100162.47;;;3.78;100.00
30554;BME280;17335;50.720;7.452;2023-02-16T08:58:42;100157.16;;;3.78;100.00
30554;BME280;17335;50.720;7.452;2023-02-16T09:01:12;100157.69;;;3.84;100.00
30554;BME280;17335;50.720;7.452;2023-02-16T09:03:40;100163.09;;;3.83;100.00
30554;BME280;17335;50.720;7.452;2023-02-16T09:06:10;100169.09;;;3.86;100.00
30554;BME280;17335;50.720;7.452;2023-02-16T09:08:38;100168.94;;;3.89;100.00
30554;BME280;17335;50.720;7.452;2023-02-16T09:11:09;100168.09;;;3.89;100.00
30554;BME280;17335;50.720;7.452;2023-02-16T09:13:37;100165.59;;;3.86;100.00
30554;BME280;17335;50.720;7.452;2023-02-16T09:16:12;100156.69;;;3.87;100.00
30554;BME280;17335;50.720;7.452;2023-02-16T09:18:41;100160.50;;;3.81;100.00
30554;BME280;17335;50.720;7.452;2023-02-16T09:21:15;100162.94;;;3.86;100.00
30554;BME280;17335;50.720;7.452;2023-02-16T09:23:45;100166.97;;;3.93;100.00
30554;BME280;17335;50.720;7.452;2023-02-16T09:26:17;100159.69;;;3.97;100.00
30554;BME280;17335;50.720;7.452;2023-02-16T09:28:44;100161.69;;;4.09;100.00
30554;BME280;17335;50.720;7.452;2023-02-16T09:31:19;100159.38;;;4.19;100.00
30554;BME280;17335;50.720;7.452;2023-02-16T09:33:52;100157.94;;;4.29;100.00
30554;BME280;17335;50.720;7.452;2023-02-16T09:36:19;100169.69;;;4.41;100.00
30554;BME280;17335;50.720;7.452;2023-02-16T09:38:46;100163.78;;;4.51;100.00
30554;BME280;17335;50.720;7.452;2023-02-16T09:46:20;100167.53;;;4.63;100.00
30554;BME280;17335;50.720;7.452;2023-02-16T09:48:49;100159.03;;;4.73;100.00
30554;BME280;17335;50.720;7.452;2023-02-16T09:51:23;100158.59;;;4.80;100.00
30554;BME280;17335;50.720;7.452;2023-02-16T09:54:34;100170.00;;;4.82;100.00
30554;BME280;17335;50.720;7.452;2023-02-16T09:57:13;100160.91;;;4.86;100.00
30554;BME280;17335;50.720;7.452;2023-02-16T10:00:04;100162.13;;;4.81;100.00
30554;BME280;17335;50.720;7.452;2023-02-16T10:08:23;100156.06;;;4.63;100.00
30554;BME280;17335;50.720;7.452;2023-02-16T10:11:01;100142.41;;;4.69;100.00
30554;BME280;17335;50.720;7.452;2023-02-16T10:13:46;100148.06;;;4.79;100.00
30554;BME280;17335;50.720;7.452;2023-02-16T10:16:27;100146.03;;;4.98;100.00
30554;BME280;17335;50.720;7.452;2023-02-16T10:18:56;100145.06;;;5.15;100.00
30554;BME280;17335;50.720;7.452;2023-02-16T10:21:26;100143.59;;;5.40;100.00
30554;BME280;17335;50.720;7.452;2023-02-16T10:24:01;100139.63;;;5.61;100.00
30554;BME280;17335;50.720;7.452;2023-02-16T10:26:41;100143.56;;;5.85;100.00
30554;BME280;17335;50.720;7.452;2023-02-16T10:29:18;100134.75;;;5.98;100.00
30554;BME280;17335;50.720;7.452;2023-02-16T10:34:46;100140.25;;;6.24;100.00
30554;BME280;17335;50.720;7.452;2023-02-16T10:39:50;100137.00;;;6.61;100.00
30554;BME280;17335;50.720;7.452;2023-02-16T10:42:27;100128.09;;;6.74;100.00
30554;BME280;17335;50.720;7.452;2023-02-16T10:45:04;100132.97;;;6.95;100.00
30554;BME280;17335;50.720;7.452;2023-02-16T10:47:39;100136.09;;;7.14;100.00
30554;BME280;17335;50.720;7.452;2023-02-16T10:52:41;100137.25;;;7.38;100.00
30554;BME280;17335;50.720;7.452;2023-02-16T10:55:11;100131.47;;;7.44;100.00
30554;BME280;17335;50.720;7.452;2023-02-16T10:57:38;100140.03;;;7.62;100.00
30554;BME280;17335;50.720;7.452;2023-02-16T11:00:07;100149.88;;;7.74;100.00
30554;BME280;17335;50.720;7.452;2023-02-16T11:02:40;100148.59;;;7.93;100.00
30554;BME280;17335;50.720;7.452;2023-02-16T11:05:29;100153.91;;;8.05;100.00
30554;BME280;17335;50.720;7.452;2023-02-16T11:07:58;100151.34;;;8.04;100.00
30554;BME280;17335;50.720;7.452;2023-02-16T11:13:34;100154.66;;;8.07;100.00
30554;BME280;17335;50.720;7.452;2023-02-16T11:16:10;100150.91;;;8.10;100.00
30554;BME280;17335;50.720;7.452;2023-02-16T11:18:42;100150.81;;;8.12;100.00
30554;BME280;17335;50.720;7.452;2023-02-16T11:21:12;100150.47;;;8.16;100.00
30554;BME280;17335;50.720;7.452;2023-02-16T11:23:42;100134.94;;;8.21;100.00
30554;BME280;17335;50.720;7.452;2023-02-16T11:33:36;100123.56;;;8.56;100.00
30554;BME280;17335;50.720;7.452;2023-02-16T11:36:23;100115.97;;;8.74;100.00
30554;BME280;17335;50.720;7.452;2023-02-16T11:39:25;100122.31;;;8.73;100.00
30554;BME280;17335;50.720;7.452;2023-02-16T11:42:02;100107.22;;;8.83;100.00
30554;BME280;17335;50.720;7.452;2023-02-16T11:44:36;100094.34;;;8.89;100.00
30554;BME280;17335;50.720;7.452;2023-02-16T11:47:27;100097.31;;;8.97;100.00
30554;BME280;17335;50.720;7.452;2023-02-16T11:52:49;100082.41;;;9.17;100.00
30554;BME280;17335;50.720;7.452;2023-02-16T11:55:28;100079.75;;;9.28;100.00
30554;BME280;17335;50.720;7.452;2023-02-16T11:58:13;100080.00;;;9.25;100.00
30554;BME280;17335;50.720;7.452;2023-02-16T12:00:51;100071.34;;;9.22;100.00
30554;BME280;17335;50.720;7.452;2023-02-16T12:08:32;100074.94;;;9.09;100.00
30554;BME280;17335;50.720;7.452;2023-02-16T12:11:22;100066.06;;;9.09;100.00
30554;BME280;17335;50.720;7.452;2023-02-16T12:16:43;100068.31;;;9.26;100.00
30554;BME280;17335;50.720;7.452;2023-02-16T12:24:56;100062.38;;;9.56;100.00
30554;BME280;17335;50.720;7.452;2023-02-16T12:27:41;100059.72;;;9.56;100.00
30554;BME280;17335;50.720;7.452;2023-02-16T12:33:07;100043.72;;;9.44;100.00
30554;BME280;17335;50.720;7.452;2023-02-16T12:41:33;100033.25;;;9.29;100.00
30554;BME280;17335;50.720;7.452;2023-02-16T12:44:05;100023.38;;;9.30;100.00
30554;BME280;17335;50.720;7.452;2023-02-16T12:46:43;100015.72;;;9.25;100.00
30554;BME280;17335;50.720;7.452;2023-02-16T12:49:19;100019.97;;;9.28;100.00
30554;BME280;17335;50.720;7.452;2023-02-16T12:51:52;100016.94;;;9.32;100.00
30554;BME280;17335;50.720;7.452;2023-02-16T12:54:27;100018.13;;;9.28;100.00
30554;BME280;17335;50.720;7.452;2023-02-16T12:57:01;100022.75;;;9.26;100.00
30554;BME280;17335;50.720;7.452;2023-02-16T12:59:36;100028.84;;;9.17;100.00
30554;BME280;17335;50.720;7.452;2023-02-16T13:02:14;100034.44;;;9.14;100.00
30554;BME280;17335;50.720;7.452;2023-02-16T13:04:57;100036.22;;;9.02;100.00
30554;BME280;17335;50.720;7.452;2023-02-16T13:07:30;100035.63;;;8.98;100.00
30554;BME280;17335;50.720;7.452;2023-02-16T13:10:02;100037.06;;;8.91;100.00
30554;BME280;17335;50.720;7.452;2023-02-16T13:12:39;100030.34;;;8.86;100.00
30554;BME280;17335;50.720;7.452;2023-02-16T13:17:54;100027.31;;;8.90;100.00
30554;BME280;17335;50.720;7.452;2023-02-16T13:20:23;100025.38;;;8.92;100.00
30554;BME280;17335;50.720;7.452;2023-02-16T13:34:50;100007.19;;;8.73;100.00
30554;BME280;17335;50.720;7.452;2023-02-16T13:43:33;100003.84;;;8.58;100.00
30554;BME280;17335;50.720;7.452;2023-02-16T13:46:02;100003.84;;;8.58;100.00
30554;BME280;17335;50.720;7.452;2023-02-16T13:48:49;100006.25;;;8.50;100.00
30554;BME280;17335;50.720;7.452;2023-02-16T13:51:17;100003.34;;;8.40;100.00
30554;BME280;17335;50.720;7.452;2023-02-16T13:53:59;100004.16;;;8.42;100.00
30554;BME280;17335;50.720;7.452;2023-02-16T13:56:36;99997.16;;;8.40;100.00
30554;BME280;17335;50.720;7.452;2023-02-16T14:01:46;99990.78;;;8.42;100.00
30554;BME280;17335;50.720;7.452;2023-02-16T14:07:19;99993.81;;;8.49;100.00
30554;BME280;17335;50.720;7.452;2023-02-16T14:27:48;99974.28;;;8.60;100.00
30554;BME280;17335;50.720;7.452;2023-02-16T14:30:26;99971.13;;;8.55;100.00
30554;BME280;17335;50.720;7.452;2023-02-16T14:33:17;99969.28;;;8.55;100.00
30554;BME280;17335;50.720;7.452;2023-02-16T14:41:31;99942.28;;;8.58;100.00
30554;BME280;17335;50.720;7.452;2023-02-16T14:55:17;99949.16;;;8.74;100.00
30554;BME280;17335;50.720;7.452;2023-02-16T15:00:36;99938.66;;;8.71;100.00
30554;BME280;17335;50.720;7.452;2023-02-16T15:03:16;99933.81;;;8.76;100.00
30554;BME280;17335;50.720;7.452;2023-02-16T15:06:04;99938.94;;;8.79;100.00
30554;BME280;17335;50.720;7.452;2023-02-16T15:08:35;99928.34;;;8.77;100.00
30554;BME280;17335;50.720;7.452;2023-02-16T15:11:13;99935.88;;;8.72;100.00
30554;BME280;17335;50.720;7.452;2023-02-16T15:13:42;99930.41;;;8.74;100.00
30554;BME280;17335;50.720;7.452;2023-02-16T15:16:10;99931.50;;;8.71;100.00
30554;BME280;17335;50.720;7.452;2023-02-16T15:18:46;99941.97;;;8.74;100.00
30554;BME280;17335;50.720;7.452;2023-02-16T15:21:16;99922.63;;;8.71;100.00
30554;BME280;17335;50.720;7.452;2023-02-16T15:23:50;99931.50;;;8.71;100.00
30554;BME280;17335;50.720;7.452;2023-02-16T15:26:26;99930.69;;;8.82;100.00
30554;BME280;17335;50.720;7.452;2023-02-16T15:28:56;99931.88;;;8.78;100.00
30554;BME280;17335;50.720;7.452;2023-02-16T15:31:28;99922.38;;;8.74;100.00
30554;BME280;17335;50.720;7.452;2023-02-16T15:34:00;99920.66;;;8.73;100.00
30554;BME280;17335;50.720;7.452;2023-02-16T15:36:40;99919.81;;;8.72;100.00
30554;BME280;17335;50.720;7.452;2023-02-16T15:39:08;99928.22;;;8.79;100.00
30554;BME280;17335;50.720;7.452;2023-02-16T15:41:42;99932.59;;;8.69;100.00
30554;BME280;17335;50.720;7.452;2023-02-16T15:44:29;99931.09;;;8.64;100.00
30554;BME280;17335;50.720;7.452;2023-02-16T15:47:10;99937.44;;;8.63;100.00
30554;BME280;17335;50.720;7.452;2023-02-16T15:49:38;99933.50;;;8.45;100.00
30554;BME280;17335;50.720;7.452;2023-02-16T15:52:10;99934.78;;;8.39;100.00